Cape Charles — WDI5730 — position and weather

sailwx.info

Track history (hours):
 
Tides and Currents Weather Stations Pressure Air Temp Water Temp Dewpoint Dewpoint Depression Visibility Wind Speed Wind Dir Waves Ship Positions

Cape Charles

Owner: Virginia Pilot Boat Corporation, VIRGINIA BEACH, VA. More information available from US FCC via Universal Licensing System and Coast Guard Vessel Documentation Center.

Last reported at 2017-Nov-19 21:56 UTC. Time now 2017-Nov-22 09:24 UTC.
Position N 36°54' W 076°05'.

Length 13 m; draft 1.5 m.

Type: Pilot. MMSI: 367711530.

Date/timePositionNaut miles runAvg speedWind from/ knotsBaromVisibWave heightAir tempDewpointWater temp
2017-Nov-19 21:56N 36°54' W 076°05'0 0.0
2017-Nov-19 21:17N 36°54' W 076°05'0 0.0
2017-Nov-19 21:00N 36°54' W 076°05'0 0.0
2017-Nov-19 20:27N 36°54' W 076°05'0 0.0
2017-Nov-19 19:55N 36°54' W 076°05'0 0.0
2017-Nov-19 19:14N 36°54' W 076°05'0 0.0
2017-Nov-19 07:11N 36°54' W 076°05'0 0.0
2017-Nov-19 04:29N 36°54' W 076°05'0 0.0
2017-Nov-18 09:41N 36°54' W 076°05'421.1
2017-Nov-18 09:30N 36°57' W 076°02'3 7.0
2017-Nov-18 09:00N 36°55' W 076°05'2 0.9
2017-Nov-18 07:03N 36°57' W 076°05'126.7
2017-Nov-18 07:00N 36°56' W 076°05'1 0.1
2017-Nov-17 18:27N 36°54' W 076°05'0 0.0
2017-Nov-17 18:00N 36°54' W 076°05'0 0.0
2017-Nov-17 16:57N 36°54' W 076°05'0 0.0
2017-Nov-17 16:27N 36°54' W 076°05'0 0.0
2017-Nov-17 15:51N 36°54' W 076°05'0 0.0
2017-Nov-17 15:26N 36°54' W 076°05'0 0.0
2017-Nov-17 14:34N 36°54' W 076°05'0 0.0
2017-Nov-17 14:12N 36°54' W 076°05'0 0.0
2017-Nov-17 12:15N 36°54' W 076°05'0 0.0
2017-Nov-17 01:26N 36°54' W 076°05'0 0.0
2017-Nov-16 21:51N 36°54' W 076°05'0 0.0
2017-Nov-16 21:03N 36°54' W 076°05'0 0.0
2017-Nov-16 20:56N 36°54' W 076°05'0 0.1
2017-Nov-16 20:12N 36°54' W 076°05'2 1.2
2017-Nov-16 18:51N 36°56' W 076°05'2 0.1
2017-Nov-15 18:42N 36°54' W 076°05'318.1
2017-Nov-15 18:30N 36°56' W 076°02'610.8
2017-Nov-15 18:00N 36°59' W 076°08'5 2.6
2017-Nov-15 16:06N 36°55' W 076°06'0 0.1
2017-Nov-15 12:41N 36°54' W 076°05'315.3
2017-Nov-15 12:30N 36°56' W 076°03'3 0.2
2017-Nov-14 21:52N 36°54' W 076°05'0 0.0
2017-Nov-14 21:28N 36°54' W 076°05'0 0.0
2017-Nov-14 20:58N 36°54' W 076°05'0 0.0
2017-Nov-14 20:18N 36°54' W 076°05'0 0.0
2017-Nov-14 19:59N 36°54' W 076°05'0 0.0
2017-Nov-14 19:29N 36°54' W 076°05'0 0.0
2017-Nov-14 18:53N 36°54' W 076°05'0 0.0
2017-Nov-14 18:29N 36°54' W 076°05'0 0.0
2017-Nov-14 17:25N 36°54' W 076°05'0 0.0
2017-Nov-14 16:56N 36°54' W 076°05'0 0.0
2017-Nov-14 16:15N 36°54' W 076°05'0 0.0
2017-Nov-14 16:00N 36°54' W 076°05'0 0.0
2017-Nov-14 15:26N 36°54' W 076°05'0 0.0
2017-Nov-14 14:59N 36°54' W 076°05'0 0.0
2017-Nov-14 12:04N 36°54' W 076°05'0 0.0
2017-Nov-14 11:55N 36°54' W 076°05'0 0.0
2017-Nov-13 21:45N 36°54' W 076°05'0 0.0
2017-Nov-12 19:41N 36°54' W 076°05'0 0.0
2017-Nov-12 19:20N 36°54' W 076°05'0 0.0
2017-Nov-12 18:59N 36°54' W 076°05'0 0.0
2017-Nov-12 18:30N 36°54' W 076°05'0 0.0
2017-Nov-12 18:00N 36°54' W 076°05'0 0.0
2017-Nov-12 17:30N 36°54' W 076°05'0 0.0
2017-Nov-12 17:00N 36°54' W 076°05'0 0.0
2017-Nov-12 16:30N 36°54' W 076°05'0 0.0
2017-Nov-12 16:00N 36°54' W 076°05'0 0.0
2017-Nov-11 20:34N 36°54' W 076°05'0 0.0
2017-Nov-11 20:25N 36°54' W 076°05'0 0.0
2017-Nov-11 19:58N 36°54' W 076°05'0 0.0
2017-Nov-11 19:14N 36°54' W 076°05'0 0.0
2017-Nov-11 18:49N 36°54' W 076°05'0 0.0
2017-Nov-11 18:30N 36°54' W 076°05'0 0.0
2017-Nov-11 17:55N 36°54' W 076°05'0 0.0
2017-Nov-11 17:21N 36°54' W 076°05'0 0.0
2017-Nov-11 16:53N 36°54' W 076°05'0 0.0
2017-Nov-11 16:30N 36°54' W 076°05'0 0.0
2017-Nov-11 15:47N 36°54' W 076°05'0 0.0
2017-Nov-11 15:25N 36°54' W 076°05'0 0.0
2017-Nov-11 13:27N 36°54' W 076°05'0 0.0
2017-Nov-11 12:54N 36°54' W 076°05'0 0.0
2017-Nov-11 12:26N 36°54' W 076°05'0 0.0
2017-Nov-11 12:00N 36°54' W 076°05'0 0.0
2017-Nov-11 09:49N 36°54' W 076°05'0 0.0
2017-Nov-10 21:44N 36°54' W 076°05'0 0.0
2017-Nov-10 21:30N 36°54' W 076°05'0 0.0
2017-Nov-10 20:56N 36°54' W 076°05'0 0.0
2017-Nov-10 20:24N 36°54' W 076°05'0 0.0
2017-Nov-10 16:37N 36°54' W 076°05'0 0.0
2017-Nov-10 16:07N 36°54' W 076°05'0 0.0
2017-Nov-10 15:59N 36°54' W 076°05'0 0.0
2017-Nov-10 14:22N 36°54' W 076°05'0 0.0
2017-Nov-10 13:56N 36°54' W 076°05'  
Track history (hours):
 
Tides and Currents Weather Stations Pressure Air Temp Water Temp Dewpoint Dewpoint Depression Visibility Wind Speed Wind Dir Waves Ship Positions

Cape Charles

Owner: Virginia Pilot Boat Corporation, VIRGINIA BEACH, VA. More information available from US FCC via Universal Licensing System and Coast Guard Vessel Documentation Center.

Last reported at 2017-Nov-19 21:56 UTC. Time now 2017-Nov-22 09:24 UTC.
Position N 36°54' W 076°05'.

Length 13 m; draft 1.5 m.

Type: Pilot. MMSI: 367711530.

Date/timePositionNaut miles runAvg speedWind from/ knotsBaromVisibWave heightAir tempDewpointWater temp
2017-Nov-19 21:56N 36°54' W 076°05'0 0.0
2017-Nov-19 21:17N 36°54' W 076°05'0 0.0
2017-Nov-19 21:00N 36°54' W 076°05'0 0.0
2017-Nov-19 20:27N 36°54' W 076°05'0 0.0
2017-Nov-19 19:55N 36°54' W 076°05'0 0.0
2017-Nov-19 19:14N 36°54' W 076°05'0 0.0
2017-Nov-19 07:11N 36°54' W 076°05'0 0.0
2017-Nov-19 04:29N 36°54' W 076°05'0 0.0
2017-Nov-18 09:41N 36°54' W 076°05'421.1
2017-Nov-18 09:30N 36°57' W 076°02'3 7.0
2017-Nov-18 09:00N 36°55' W 076°05'2 0.9
2017-Nov-18 07:03N 36°57' W 076°05'126.7
2017-Nov-18 07:00N 36°56' W 076°05'1 0.1
2017-Nov-17 18:27N 36°54' W 076°05'0 0.0
2017-Nov-17 18:00N 36°54' W 076°05'0 0.0
2017-Nov-17 16:57N 36°54' W 076°05'0 0.0
2017-Nov-17 16:27N 36°54' W 076°05'0 0.0
2017-Nov-17 15:51N 36°54' W 076°05'0 0.0
2017-Nov-17 15:26N 36°54' W 076°05'0 0.0
2017-Nov-17 14:34N 36°54' W 076°05'0 0.0
2017-Nov-17 14:12N 36°54' W 076°05'0 0.0
2017-Nov-17 12:15N 36°54' W 076°05'0 0.0
2017-Nov-17 01:26N 36°54' W 076°05'0 0.0
2017-Nov-16 21:51N 36°54' W 076°05'0 0.0
2017-Nov-16 21:03N 36°54' W 076°05'0 0.0
2017-Nov-16 20:56N 36°54' W 076°05'0 0.1
2017-Nov-16 20:12N 36°54' W 076°05'2 1.2
2017-Nov-16 18:51N 36°56' W 076°05'2 0.1
2017-Nov-15 18:42N 36°54' W 076°05'318.1
2017-Nov-15 18:30N 36°56' W 076°02'610.8
2017-Nov-15 18:00N 36°59' W 076°08'5 2.6
2017-Nov-15 16:06N 36°55' W 076°06'0 0.1
2017-Nov-15 12:41N 36°54' W 076°05'315.3
2017-Nov-15 12:30N 36°56' W 076°03'3 0.2
2017-Nov-14 21:52N 36°54' W 076°05'0 0.0
2017-Nov-14 21:28N 36°54' W 076°05'0 0.0
2017-Nov-14 20:58N 36°54' W 076°05'0 0.0
2017-Nov-14 20:18N 36°54' W 076°05'0 0.0
2017-Nov-14 19:59N 36°54' W 076°05'0 0.0
2017-Nov-14 19:29N 36°54' W 076°05'0 0.0
2017-Nov-14 18:53N 36°54' W 076°05'0 0.0
2017-Nov-14 18:29N 36°54' W 076°05'0 0.0
2017-Nov-14 17:25N 36°54' W 076°05'0 0.0
2017-Nov-14 16:56N 36°54' W 076°05'0 0.0
2017-Nov-14 16:15N 36°54' W 076°05'0 0.0
2017-Nov-14 16:00N 36°54' W 076°05'0 0.0
2017-Nov-14 15:26N 36°54' W 076°05'0 0.0
2017-Nov-14 14:59N 36°54' W 076°05'0 0.0
2017-Nov-14 12:04N 36°54' W 076°05'0 0.0
2017-Nov-14 11:55N 36°54' W 076°05'0 0.0
2017-Nov-13 21:45N 36°54' W 076°05'0 0.0
2017-Nov-12 19:41N 36°54' W 076°05'0 0.0
2017-Nov-12 19:20N 36°54' W 076°05'0 0.0
2017-Nov-12 18:59N 36°54' W 076°05'0 0.0
2017-Nov-12 18:30N 36°54' W 076°05'0 0.0
2017-Nov-12 18:00N 36°54' W 076°05'0 0.0
2017-Nov-12 17:30N 36°54' W 076°05'0 0.0
2017-Nov-12 17:00N 36°54' W 076°05'0 0.0
2017-Nov-12 16:30N 36°54' W 076°05'0 0.0
2017-Nov-12 16:00N 36°54' W 076°05'0 0.0
2017-Nov-11 20:34N 36°54' W 076°05'0 0.0
2017-Nov-11 20:25N 36°54' W 076°05'0 0.0
2017-Nov-11 19:58N 36°54' W 076°05'0 0.0
2017-Nov-11 19:14N 36°54' W 076°05'0 0.0
2017-Nov-11 18:49N 36°54' W 076°05'0 0.0
2017-Nov-11 18:30N 36°54' W 076°05'0 0.0
2017-Nov-11 17:55N 36°54' W 076°05'0 0.0
2017-Nov-11 17:21N 36°54' W 076°05'0 0.0
2017-Nov-11 16:53N 36°54' W 076°05'0 0.0
2017-Nov-11 16:30N 36°54' W 076°05'0 0.0
2017-Nov-11 15:47N 36°54' W 076°05'0 0.0
2017-Nov-11 15:25N 36°54' W 076°05'0 0.0
2017-Nov-11 13:27N 36°54' W 076°05'0 0.0
2017-Nov-11 12:54N 36°54' W 076°05'0 0.0
2017-Nov-11 12:26N 36°54' W 076°05'0 0.0
2017-Nov-11 12:00N 36°54' W 076°05'0 0.0
2017-Nov-11 09:49N 36°54' W 076°05'0 0.0
2017-Nov-10 21:44N 36°54' W 076°05'0 0.0
2017-Nov-10 21:30N 36°54' W 076°05'0 0.0
2017-Nov-10 20:56N 36°54' W 076°05'0 0.0
2017-Nov-10 20:24N 36°54' W 076°05'0 0.0
2017-Nov-10 16:37N 36°54' W 076°05'0 0.0
2017-Nov-10 16:07N 36°54' W 076°05'0 0.0
2017-Nov-10 15:59N 36°54' W 076°05'0 0.0
2017-Nov-10 14:22N 36°54' W 076°05'0 0.0
2017-Nov-10 13:56N 36°54' W 076°05'  

Dump ship's entire track history